Time;durP1;ratioP1;P1;durP2;ratioP2;P2;SDS_P1;SDS_P2;PMS_P1;PMS_P2;Temp;Humidity;BMP_temperature;BMP_pressure;BME280_temperature;BME280_humidity;BME280_pressure;Samples;Min_cycle;Max_cycle;Signal;HPM_P1;HPM_P2
2024/02/09 00:01:20;;;;;;;11.50;5.73;;;9.70;99.90;;;;;;5122174;28;20531;-63
2024/02/09 00:03:47;;;;;;;13.30;6.07;;;9.70;99.90;;;;;;5121816;28;20470;-63
2024/02/09 00:06:15;;;;;;;10.63;5.63;;;9.70;99.90;;;;;;5120968;28;20452;-65
2024/02/09 00:08:43;;;;;;;14.97;5.67;;;9.70;99.90;;;;;;5121419;28;20530;-63
2024/02/09 00:11:11;;;;;;;12.23;5.53;;;9.70;99.90;;;;;;5121354;28;20458;-63
2024/02/09 00:13:42;;;;;;;10.60;6.00;;;9.70;99.90;;;;;;5121502;27;20437;-63
2024/02/09 00:16:10;;;;;;;9.93;5.60;;;9.70;99.90;;;;;;5120889;28;20459;-63
2024/02/09 00:18:40;;;;;;;11.73;6.03;;;9.70;99.90;;;;;;5121305;28;20828;-64
2024/02/09 00:21:10;;;;;;;11.40;5.80;;;9.70;99.90;;;;;;5121614;28;20955;-63
2024/02/09 00:23:38;;;;;;;12.00;6.73;;;9.70;99.90;;;;;;5121707;28;20553;-64
2024/02/09 00:26:06;;;;;;;9.73;5.67;;;9.60;99.90;;;;;;5120514;28;20566;-64
2024/02/09 00:28:34;;;;;;;15.33;6.50;;;9.60;99.90;;;;;;5121373;28;20495;-63
2024/02/09 00:31:05;;;;;;;15.80;6.00;;;9.60;99.90;;;;;;5120953;28;20483;-64
2024/02/09 00:33:32;;;;;;;13.03;6.60;;;9.60;99.90;;;;;;5121463;28;20495;-64
2024/02/09 00:36:01;;;;;;;14.57;6.03;;;9.60;99.90;;;;;;5120670;27;20484;-63
2024/02/09 00:38:32;;;;;;;18.90;6.23;;;9.60;99.90;;;;;;5121095;28;20452;-64
2024/02/09 00:41:05;;;;;;;10.00;5.10;;;9.60;99.90;;;;;;5121072;28;20459;-64
2024/02/09 00:43:32;;;;;;;17.93;6.37;;;9.60;99.90;;;;;;5121143;28;20485;-64
2024/02/09 00:46:03;;;;;;;12.50;6.77;;;9.60;99.90;;;;;;5120791;28;20502;-63
2024/02/09 00:48:30;;;;;;;10.50;5.27;;;9.60;99.90;;;;;;5120495;28;20595;-64
2024/02/09 00:50:58;;;;;;;16.30;6.03;;;9.60;99.90;;;;;;5120795;28;20455;-64
2024/02/09 00:53:25;;;;;;;15.83;6.40;;;9.60;99.90;;;;;;5120711;28;20892;-63
2024/02/09 00:55:52;;;;;;;10.90;5.83;;;9.60;99.90;;;;;;5120612;28;20950;-64
2024/02/09 00:58:20;;;;;;;12.07;6.67;;;9.60;99.90;;;;;;5120496;28;20455;-63
2024/02/09 01:00:47;;;;;;;17.77;6.10;;;9.60;99.90;;;;;;5120406;28;20751;-64
2024/02/09 01:03:16;;;;;;;9.47;5.70;;;9.60;99.90;;;;;;5120487;28;20463;-63
2024/02/09 01:05:45;;;;;;;15.23;6.10;;;9.60;99.90;;;;;;5120471;28;20909;-62
2024/02/09 01:08:14;;;;;;;15.63;5.60;;;9.60;99.90;;;;;;5119875;28;20491;-63
2024/02/09 01:10:43;;;;;;;15.03;6.00;;;9.60;99.90;;;;;;5120233;28;20459;-63
2024/02/09 02:46:17;;;;;;;11.03;5.10;;;9.50;99.90;;;;;;5118194;28;20510;-63
2024/02/09 03:05:25;;;;;;;18.33;7.90;;;9.50;99.90;;;;;;5118737;28;20442;-64
2024/02/09 03:07:53;;;;;;;13.83;7.23;;;9.40;99.90;;;;;;5117918;28;20452;-64
2024/02/09 03:10:21;;;;;;;11.37;6.00;;;9.40;99.90;;;;;;5117886;28;20470;-64
2024/02/09 03:12:50;;;;;;;9.00;5.63;;;9.40;99.90;;;;;;5118185;28;20451;-64
2024/02/09 03:15:18;;;;;;;12.73;6.47;;;9.40;99.90;;;;;;5118478;28;20933;-64
2024/02/09 03:17:46;;;;;;;14.03;6.20;;;9.40;99.90;;;;;;5118256;28;20460;-64
2024/02/09 03:20:14;;;;;;;11.53;5.60;;;9.40;99.90;;;;;;5117690;28;20498;-64
2024/02/09 03:22:41;;;;;;;12.20;5.70;;;9.40;99.90;;;;;;5117707;28;20459;-64
2024/02/09 03:25:09;;;;;;;21.83;6.63;;;9.40;99.90;;;;;;5118047;28;20569;-64
2024/02/09 03:27:38;;;;;;;9.73;5.37;;;9.40;99.90;;;;;;5117703;28;20441;-65
2024/02/09 03:30:08;;;;;;;12.57;6.40;;;9.40;99.90;;;;;;5117814;28;20757;-64
2024/02/09 03:32:36;;;;;;;16.30;6.87;;;9.40;99.90;;;;;;5117721;28;20455;-64
2024/02/09 03:35:06;;;;;;;13.90;6.00;;;9.40;99.90;;;;;;5117987;28;20987;-65
2024/02/09 03:37:34;;;;;;;10.50;5.40;;;9.40;99.90;;;;;;5117491;28;20518;-64
2024/02/09 03:40:02;;;;;;;9.43;5.70;;;9.40;99.90;;;;;;5117797;28;20908;-65
2024/02/09 03:42:29;;;;;;;8.77;5.50;;;9.40;99.90;;;;;;5117647;28;20456;-64
2024/02/09 03:44:59;;;;;;;9.73;5.50;;;9.40;99.90;;;;;;5117767;28;20473;-63
2024/02/09 03:47:28;;;;;;;12.20;6.37;;;9.40;99.90;;;;;;5117817;28;20943;-64
2024/02/09 03:49:55;;;;;;;8.50;5.70;;;9.40;99.90;;;;;;5117415;28;20862;-65
2024/02/09 03:52:24;;;;;;;8.93;5.13;;;9.30;99.90;;;;;;5117827;28;20486;-64
2024/02/09 03:54:52;;;;;;;10.83;5.30;;;9.30;99.90;;;;;;5117831;28;20810;-64
2024/02/09 03:57:20;;;;;;;11.90;4.97;;;9.30;99.90;;;;;;5117598;28;20546;-64
2024/02/09 03:59:47;;;;;;;11.07;5.23;;;9.30;99.90;;;;;;5117239;28;20454;-64
2024/02/09 04:02:14;;;;;;;7.50;5.03;;;9.30;99.90;;;;;;5117210;28;20456;-64
2024/02/09 04:04:43;;;;;;;8.40;5.33;;;9.30;99.90;;;;;;5117503;28;20462;-64
2024/02/09 04:07:11;;;;;;;13.03;5.00;;;9.30;99.90;;;;;;5117814;28;20542;-65
2024/02/09 04:09:39;;;;;;;8.27;4.63;;;9.30;99.90;;;;;;5117477;28;20541;-64
2024/02/09 04:12:08;;;;;;;8.00;5.10;;;9.30;99.90;;;;;;5117202;28;20840;-64
2024/02/09 04:14:35;;;;;;;7.50;4.70;;;9.30;99.90;;;;;;5117834;28;20462;-63
2024/02/09 04:17:06;;;;;;;8.00;4.60;;;9.30;99.90;;;;;;5117511;28;20872;-64
2024/02/09 04:19:34;;;;;;;6.37;4.10;;;9.30;99.90;;;;;;5117672;28;20538;-63
2024/02/09 04:22:05;;;;;;;6.13;4.87;;;9.30;99.90;;;;;;5117257;28;20455;-63
2024/02/09 04:24:32;;;;;;;8.50;5.27;;;9.30;99.90;;;;;;5117257;28;20459;-64
2024/02/09 04:26:59;;;;;;;6.70;4.73;;;9.30;99.90;;;;;;5117264;28;20557;-63
2024/02/09 04:29:27;;;;;;;10.90;4.70;;;9.30;99.90;;;;;;5117259;28;20858;-64
2024/02/09 04:31:54;;;;;;;8.73;3.57;;;9.30;99.90;;;;;;5116919;28;20452;-63
2024/02/09 04:34:21;;;;;;;7.80;3.50;;;9.30;99.90;;;;;;5120111;28;20819;-63
2024/02/09 04:36:49;;;;;;;8.50;3.70;;;9.30;99.90;;;;;;5120933;28;20542;-63
2024/02/09 04:39:18;;;;;;;5.80;3.57;;;9.30;99.90;;;;;;5120790;28;20514;-63
2024/02/09 04:41:48;;;;;;;5.30;3.83;;;9.30;99.90;;;;;;5121032;28;20473;-63
2024/02/09 04:44:15;;;;;;;8.13;3.77;;;9.30;99.90;;;;;;5120492;28;20455;-63
2024/02/09 04:46:43;;;;;;;6.60;3.73;;;9.30;99.90;;;;;;5120662;28;20487;-66
2024/02/09 04:49:12;;;;;;;7.70;3.83;;;9.30;99.90;;;;;;5124609;28;20928;-66
2024/02/09 04:51:40;;;;;;;8.27;4.17;;;9.30;99.90;;;;;;5123745;28;20542;-66
2024/02/09 04:54:07;;;;;;;7.67;3.07;;;9.30;99.90;;;;;;5121976;28;20495;-65
2024/02/09 04:56:36;;;;;;;9.33;3.53;;;9.30;99.90;;;;;;5122417;28;20456;-65
2024/02/09 04:59:07;;;;;;;6.40;3.30;;;9.30;99.90;;;;;;5123060;28;20483;-65
2024/02/09 05:01:37;;;;;;;4.60;3.60;;;9.30;99.90;;;;;;5122016;28;20464;-65
2024/02/09 05:04:07;;;;;;;5.23;3.37;;;9.30;99.90;;;;;;5122033;28;20836;-67
2024/02/09 05:06:35;;;;;;;4.67;3.97;;;9.30;99.90;;;;;;5123415;28;20490;-66
2024/02/09 05:09:05;;;;;;;5.87;3.60;;;9.30;99.90;;;;;;5120630;28;20488;-64
2024/02/09 05:11:35;;;;;;;6.20;3.20;;;9.20;99.90;;;;;;5120378;28;20459;-63
2024/02/09 05:14:06;;;;;;;4.10;3.10;;;9.30;99.90;;;;;;5119929;28;20460;-63
2024/02/09 05:16:33;;;;;;;4.73;3.20;;;9.20;99.90;;;;;;5120084;28;20468;-63
2024/02/09 05:19:01;;;;;;;7.60;3.27;;;9.30;99.90;;;;;;5120500;28;20554;-63
2024/02/09 05:21:29;;;;;;;6.63;3.30;;;9.20;99.90;;;;;;5120333;28;20459;-64
2024/02/09 05:23:56;;;;;;;4.93;3.50;;;9.30;99.90;;;;;;5119878;28;20923;-63
2024/02/09 05:26:23;;;;;;;4.60;3.40;;;9.30;99.90;;;;;;5119546;28;20484;-63
2024/02/09 05:28:51;;;;;;;6.43;3.27;;;9.30;99.90;;;;;;5119427;28;20527;-62
2024/02/09 05:31:23;;;;;;;4.40;3.37;;;9.30;99.90;;;;;;5119818;28;20463;-62
2024/02/09 05:33:51;;;;;;;5.57;3.00;;;9.30;99.90;;;;;;5120146;28;20550;-62
2024/02/09 05:36:22;;;;;;;4.00;2.83;;;9.30;99.90;;;;;;5119409;27;20455;-62
2024/02/09 05:38:50;;;;;;;6.00;3.10;;;9.30;99.90;;;;;;5119628;28;20505;-65
2024/02/09 05:41:18;;;;;;;4.70;2.70;;;9.30;99.90;;;;;;5119978;28;20487;-67
2024/02/09 05:43:47;;;;;;;10.10;3.57;;;9.30;99.90;;;;;;5120298;28;20585;-66
2024/02/09 05:46:14;;;;;;;8.63;3.80;;;9.30;99.90;;;;;;5120760;28;20464;-69
2024/02/09 05:48:44;;;;;;;5.53;2.63;;;9.30;99.90;;;;;;5122924;28;20504;-64
2024/02/09 05:51:13;;;;;;;4.50;3.40;;;9.30;99.90;;;;;;5120095;28;20460;-63
2024/02/09 05:53:41;;;;;;;5.70;3.37;;;9.30;99.90;;;;;;5119867;28;20485;-62
2024/02/09 05:56:15;;;;;;;7.23;3.93;;;9.30;99.90;;;;;;5118826;28;20508;-62
2024/02/09 05:58:43;;;;;;;4.53;2.90;;;9.30;99.90;;;;;;5117964;28;20546;-62
2024/02/09 06:01:10;;;;;;;4.60;2.73;;;9.20;99.90;;;;;;5118972;28;20479;-62
2024/02/09 06:03:39;;;;;;;7.40;3.53;;;9.30;99.90;;;;;;5118871;28;20512;-63
2024/02/09 06:06:10;;;;;;;4.80;3.13;;;9.30;99.90;;;;;;5118706;28;20546;-62
2024/02/09 06:08:37;;;;;;;4.60;2.90;;;9.30;99.90;;;;;;5118305;28;20467;-62
2024/02/09 06:11:06;;;;;;;5.63;3.17;;;9.30;99.90;;;;;;5118904;28;20554;-62
2024/02/09 06:13:33;;;;;;;7.03;3.33;;;9.30;99.90;;;;;;5119311;28;20749;-62
2024/02/09 06:16:01;;;;;;;5.30;3.27;;;9.30;99.90;;;;;;5118659;27;20459;-62
2024/02/09 06:18:29;;;;;;;5.13;3.40;;;9.30;99.90;;;;;;5118237;27;20459;-63
2024/02/09 06:21:00;;;;;;;5.27;3.17;;;9.30;99.90;;;;;;5117786;28;20542;-62
2024/02/09 06:23:29;;;;;;;7.43;3.07;;;9.40;99.90;;;;;;5117705;28;20459;-62
2024/02/09 06:25:57;;;;;;;4.77;2.83;;;9.40;99.90;;;;;;5117374;28;20482;-62
2024/02/09 06:28:24;;;;;;;9.60;2.80;;;9.40;99.90;;;;;;5117504;28;20463;-61
2024/02/09 06:30:51;;;;;;;4.50;2.30;;;9.40;99.90;;;;;;5117196;28;20556;-61
2024/02/09 06:33:19;;;;;;;6.63;3.00;;;9.40;99.90;;;;;;5118058;28;20953;-62
2024/02/09 06:35:47;;;;;;;4.07;3.07;;;9.40;99.90;;;;;;5118679;28;20955;-62
2024/02/09 06:38:14;;;;;;;4.83;3.47;;;9.40;99.90;;;;;;5118427;28;20524;-63
2024/02/09 06:40:43;;;;;;;4.17;2.60;;;9.40;99.90;;;;;;5118312;28;20542;-63
2024/02/09 06:43:10;;;;;;;6.73;2.70;;;9.30;99.90;;;;;;5118481;28;20456;-62
2024/02/09 06:45:37;;;;;;;5.70;3.10;;;9.30;99.90;;;;;;5118385;28;20491;-64
2024/02/09 06:48:06;;;;;;;5.40;3.07;;;9.30;99.90;;;;;;5117891;28;20489;-64
2024/02/09 06:50:35;;;;;;;3.70;2.73;;;9.30;99.90;;;;;;5118170;28;20494;-63
2024/02/09 06:53:05;;;;;;;4.33;2.73;;;9.30;99.90;;;;;;5118390;28;20499;-63
2024/02/09 06:55:32;;;;;;;3.97;2.77;;;9.30;99.90;;;;;;5116734;28;20430;-64
2024/02/09 06:58:01;;;;;;;4.10;2.70;;;9.30;99.90;;;;;;5117962;28;20458;-63
2024/02/09 07:00:29;;;;;;;6.83;2.87;;;9.30;99.90;;;;;;5117911;28;20458;-63
2024/02/09 07:02:56;;;;;;;5.37;2.47;;;9.30;99.90;;;;;;5117919;28;20463;-63
2024/02/09 07:05:24;;;;;;;5.20;2.80;;;9.30;99.90;;;;;;5118074;28;20947;-63
2024/02/09 07:07:53;;;;;;;5.43;2.73;;;9.30;99.90;;;;;;5116696;28;20769;-64
2024/02/09 07:10:22;;;;;;;4.43;2.63;;;9.30;99.90;;;;;;5117539;28;20498;-64
2024/02/09 07:12:51;;;;;;;4.03;2.40;;;9.30;99.90;;;;;;5117766;28;20499;-63
2024/02/09 07:15:20;;;;;;;5.93;2.90;;;9.30;99.90;;;;;;5118121;28;20459;-63
2024/02/09 07:17:50;;;;;;;5.60;2.80;;;9.40;99.90;;;;;;5117766;28;20462;-63
2024/02/09 07:20:17;;;;;;;4.30;2.70;;;9.40;99.90;;;;;;5117496;28;20461;-63
2024/02/09 07:22:45;;;;;;;6.10;2.60;;;9.40;99.90;;;;;;5117664;28;20464;-63
2024/02/09 07:25:13;;;;;;;7.27;2.53;;;9.40;99.90;;;;;;5117580;28;21013;-63
2024/02/09 07:27:40;;;;;;;6.60;2.90;;;9.40;99.90;;;;;;5117842;28;20811;-63
2024/02/09 07:30:09;;;;;;;4.63;2.83;;;9.40;99.90;;;;;;5117599;28;20545;-64
2024/02/09 07:32:38;;;;;;;7.07;3.03;;;9.50;99.90;;;;;;5117172;28;20463;-63
2024/02/09 07:35:07;;;;;;;5.23;2.93;;;9.50;99.90;;;;;;5117958;28;20888;-64
2024/02/09 07:37:35;;;;;;;6.23;3.10;;;9.50;99.90;;;;;;5117975;28;20745;-63
2024/02/09 07:40:08;;;;;;;5.00;2.93;;;9.50;99.90;;;;;;5117480;28;20498;-63
2024/02/09 07:42:36;;;;;;;8.30;2.90;;;9.50;99.90;;;;;;5117651;28;20467;-64
2024/02/09 07:45:15;;;;;;;4.50;2.93;;;9.60;99.90;;;;;;5117707;28;20462;-63
2024/02/09 07:47:45;;;;;;;5.93;3.50;;;9.60;99.90;;;;;;5117929;28;20471;-63
2024/02/09 07:50:13;;;;;;;5.30;2.70;;;9.60;99.90;;;;;;5117446;28;20782;-64
2024/02/09 07:52:40;;;;;;;6.07;2.87;;;9.60;99.90;;;;;;5117380;28;20903;-64
2024/02/09 07:55:08;;;;;;;7.53;3.60;;;9.60;99.90;;;;;;5117549;28;20461;-65
2024/02/09 07:57:36;;;;;;;7.40;3.37;;;9.70;99.90;;;;;;5117964;28;20485;-65
2024/02/09 08:00:08;;;;;;;9.17;3.17;;;9.70;99.90;;;;;;5117061;28;20505;-65
2024/02/09 08:02:35;;;;;;;5.80;3.53;;;9.70;99.90;;;;;;5117150;28;20557;-65
2024/02/09 08:05:08;;;;;;;5.53;3.40;;;9.70;99.90;;;;;;5117660;28;20475;-63
2024/02/09 08:07:36;;;;;;;8.27;3.60;;;9.70;99.90;;;;;;5117858;28;20494;-63
2024/02/09 08:10:04;;;;;;;6.30;3.07;;;9.70;99.90;;;;;;5121667;28;20931;-64
2024/02/09 08:12:32;;;;;;;9.57;4.40;;;9.70;99.90;;;;;;5121369;28;20479;-63
2024/02/09 08:14:59;;;;;;;5.00;4.17;;;9.70;99.90;;;;;;5121488;28;20470;-64
2024/02/09 08:17:27;;;;;;;5.27;4.00;;;9.80;99.90;;;;;;5121089;28;20490;-66
2024/02/09 08:19:57;;;;;;;7.07;4.50;;;9.80;99.90;;;;;;5120064;28;20451;-67
2024/02/09 08:22:32;;;;;;;10.43;4.70;;;9.80;99.90;;;;;;5119561;28;20480;-66
2024/02/09 08:25:00;;;;;;;8.47;3.77;;;9.80;99.90;;;;;;5120506;28;20487;-64
2024/02/09 08:27:27;;;;;;;5.03;3.57;;;9.80;99.90;;;;;;5121134;28;20490;-64
2024/02/09 08:29:56;;;;;;;8.80;4.87;;;9.80;99.90;;;;;;5120457;28;20922;-65
2024/02/09 08:32:24;;;;;;;6.67;4.87;;;9.80;99.90;;;;;;5120906;28;20462;-67
2024/02/09 08:34:52;;;;;;;8.57;4.67;;;9.80;99.90;;;;;;5121220;28;20474;-67
2024/02/09 08:37:20;;;;;;;6.60;3.83;;;9.80;99.90;;;;;;5121425;28;20912;-64
2024/02/09 08:39:49;;;;;;;8.80;5.30;;;9.80;99.90;;;;;;5121361;28;20550;-67
2024/02/09 08:42:17;;;;;;;6.90;4.53;;;9.80;99.90;;;;;;5120620;28;20915;-66
2024/02/09 08:44:44;;;;;;;9.07;4.43;;;9.80;99.90;;;;;;5120131;28;20465;-65
2024/02/09 08:47:12;;;;;;;13.30;5.90;;;9.70;99.90;;;;;;5120995;28;20773;-64
2024/02/09 08:49:40;;;;;;;10.40;5.10;;;9.80;99.90;;;;;;5120029;28;20459;-63
2024/02/09 08:52:07;;;;;;;7.50;5.53;;;9.80;99.90;;;;;;5120191;28;20455;-62
2024/02/09 08:54:35;;;;;;;9.90;5.80;;;9.90;99.90;;;;;;5120507;28;20455;-62
2024/02/09 08:57:04;;;;;;;11.23;5.70;;;9.80;99.90;;;;;;5120640;28;20462;-62
2024/02/09 08:59:32;;;;;;;8.40;5.03;;;9.90;99.90;;;;;;5120617;28;20458;-63
2024/02/09 09:02:00;;;;;;;5.03;4.17;;;9.90;99.90;;;;;;5120572;28;20456;-64
2024/02/09 09:04:28;;;;;;;7.00;4.20;;;9.90;99.90;;;;;;5119818;28;20835;-64
2024/02/09 09:06:56;;;;;;;6.67;4.70;;;9.90;99.90;;;;;;5120617;28;20963;-63
2024/02/09 09:09:23;;;;;;;6.93;4.07;;;10.00;99.90;;;;;;5120275;28;20491;-62
2024/02/09 09:11:51;;;;;;;5.80;4.00;;;10.00;99.90;;;;;;5119547;28;20544;-62
2024/02/09 09:14:20;;;;;;;5.30;3.23;;;10.10;99.90;;;;;;5120030;28;20508;-62
2024/02/09 09:16:48;;;;;;;7.10;3.80;;;10.10;99.90;;;;;;5119848;28;20455;-62
2024/02/09 09:19:17;;;;;;;9.53;4.13;;;10.10;99.90;;;;;;5119925;28;21001;-62
2024/02/09 09:21:45;;;;;;;5.60;3.37;;;10.20;99.90;;;;;;5120191;28;20481;-63
2024/02/09 09:24:15;;;;;;;8.70;4.00;;;10.30;99.90;;;;;;5119822;28;20467;-63
2024/02/09 09:26:43;;;;;;;6.20;4.03;;;10.30;99.90;;;;;;5119763;28;20540;-62
2024/02/09 09:29:12;;;;;;;5.43;3.63;;;10.30;99.90;;;;;;5120125;28;20892;-63
2024/02/09 09:31:42;;;;;;;9.00;4.20;;;10.40;99.90;;;;;;5119557;28;20494;-63
2024/02/09 09:34:10;;;;;;;9.13;4.30;;;10.50;99.90;;;;;;5119668;28;20459;-63
2024/02/09 09:36:37;;;;;;;7.97;3.63;;;10.50;99.90;;;;;;5118369;28;20460;-63
2024/02/09 09:39:05;;;;;;;7.23;3.80;;;10.60;99.90;;;;;;5119630;28;20455;-63
2024/02/09 09:41:36;;;;;;;8.70;4.20;;;10.60;99.90;;;;;;5119793;28;20462;-63
2024/02/09 09:44:04;;;;;;;8.60;4.10;;;10.60;99.90;;;;;;5118941;28;20470;-64
2024/02/09 09:46:34;;;;;;;7.17;3.63;;;10.70;99.90;;;;;;5119384;28;20729;-63
2024/02/09 09:49:04;;;;;;;8.50;4.80;;;10.70;99.90;;;;;;5119398;28;20557;-64
2024/02/09 09:51:33;;;;;;;8.67;4.87;;;10.80;99.90;;;;;;5119196;28;20924;-63
2024/02/09 09:54:01;;;;;;;7.37;4.90;;;10.70;99.90;;;;;;5118863;28;20455;-63
2024/02/09 09:56:32;;;;;;;8.63;5.83;;;10.80;99.90;;;;;;5119205;28;20456;-64
2024/02/09 09:58:59;;;;;;;8.23;6.37;;;10.90;99.90;;;;;;5117571;28;20892;-63
2024/02/09 10:01:30;;;;;;;7.93;6.23;;;10.90;99.90;;;;;;5116953;28;20474;-64
2024/02/09 10:03:59;;;;;;;8.50;5.17;;;11.10;99.90;;;;;;5116500;28;20550;-63
2024/02/09 10:06:28;;;;;;;6.43;3.60;;;11.10;99.90;;;;;;5117023;28;20461;-62
2024/02/09 10:08:55;;;;;;;5.33;3.83;;;11.10;99.90;;;;;;5118895;28;20459;-62
2024/02/09 10:11:23;;;;;;;8.63;4.00;;;11.10;99.90;;;;;;5118601;28;20487;-63
2024/02/09 10:13:52;;;;;;;9.47;5.70;;;11.20;99.90;;;;;;5118510;28;20814;-62
2024/02/09 10:16:22;;;;;;;6.70;3.70;;;11.10;99.90;;;;;;5117043;28;20459;-63
2024/02/09 10:18:52;;;;;;;8.83;5.53;;;11.10;99.90;;;;;;5116960;28;20459;-63
2024/02/09 10:21:22;;;;;;;18.97;7.40;;;11.10;99.90;;;;;;5116897;28;20455;-63
2024/02/09 10:23:51;;;;;;;7.90;5.53;;;11.20;99.90;;;;;;5117558;28;20792;-62
2024/02/09 10:26:20;;;;;;;10.07;5.73;;;11.40;99.90;;;;;;5115836;28;20772;-62
2024/02/09 10:28:52;;;;;;;16.70;7.93;;;11.50;99.90;;;;;;5116765;28;20768;-62
2024/02/09 10:31:22;;;;;;;6.40;3.90;;;11.50;99.90;;;;;;5117384;28;20494;-63
2024/02/09 10:33:49;;;;;;;5.80;4.17;;;11.60;99.90;;;;;;5119029;28;20456;-63
2024/02/09 10:36:17;;;;;;;10.10;4.10;;;11.50;99.90;;;;;;5118138;27;20505;-63
2024/02/09 10:38:48;;;;;;;6.27;4.03;;;11.40;99.90;;;;;;5118419;28;20927;-64
2024/02/09 10:41:18;;;;;;;6.47;4.03;;;11.40;99.90;;;;;;5118498;28;20734;-65
2024/02/09 10:43:51;;;;;;;6.47;4.40;;;11.30;99.90;;;;;;5118613;28;20880;-66
2024/02/09 10:46:23;;;;;;;5.70;3.90;;;11.20;99.90;;;;;;5117944;28;20499;-67
2024/02/09 10:48:52;;;;;;;6.47;3.90;;;11.20;99.90;;;;;;5116917;28;20467;-66
2024/02/09 10:51:27;;;;;;;11.17;6.43;;;11.10;99.90;;;;;;5118343;28;20506;-64
2024/02/09 10:54:00;;;;;;;10.27;5.70;;;11.10;99.90;;;;;;5117921;28;20737;-64
2024/02/09 10:56:32;;;;;;;25.73;13.33;;;11.10;99.90;;;;;;5117963;28;20456;-64
2024/02/09 10:59:01;;;;;;;15.57;8.57;;;11.10;99.90;;;;;;5117959;28;20907;-62
2024/02/09 11:01:30;;;;;;;17.00;8.20;;;11.20;99.90;;;;;;5118186;28;20896;-62
2024/02/09 11:03:58;;;;;;;26.60;11.37;;;11.20;99.90;;;;;;5117607;28;20558;-63
2024/02/09 11:06:26;;;;;;;16.20;7.50;;;11.30;99.90;;;;;;5115820;27;20836;-62
2024/02/09 11:08:55;;;;;;;11.67;4.40;;;11.30;99.90;;;;;;5117104;28;20867;-62
2024/02/09 11:11:27;;;;;;;8.83;4.50;;;11.30;99.90;;;;;;5117325;28;20487;-62
2024/02/09 11:14:07;;;;;;;5.27;4.20;;;11.30;99.90;;;;;;5117616;28;20751;-62
2024/02/09 11:16:43;;;;;;;11.00;4.60;;;11.20;99.90;;;;;;5117871;28;20546;-63
2024/02/09 11:19:15;;;;;;;8.30;4.23;;;11.20;99.90;;;;;;5117608;28;20516;-64
2024/02/09 11:21:47;;;;;;;6.60;4.20;;;11.20;99.90;;;;;;5117674;28;20459;-64
2024/02/09 11:24:17;;;;;;;6.70;4.00;;;11.10;99.90;;;;;;5117202;28;20482;-62
2024/02/09 11:26:48;;;;;;;5.27;3.93;;;11.00;99.90;;;;;;5117424;28;20487;-63
2024/02/09 11:29:17;;;;;;;7.53;4.30;;;11.10;99.90;;;;;;5117863;28;20455;-63
2024/02/09 11:31:50;;;;;;;7.83;4.23;;;11.00;99.90;;;;;;5117936;28;20540;-67
2024/02/09 11:34:18;;;;;;;6.90;4.50;;;11.00;99.90;;;;;;5117556;28;20462;-64
2024/02/09 11:36:46;;;;;;;7.30;4.33;;;11.00;99.90;;;;;;5117615;28;20459;-63
2024/02/09 11:39:14;;;;;;;10.13;4.63;;;11.00;99.90;;;;;;5117548;28;20459;-63
2024/02/09 11:41:42;;;;;;;7.30;5.30;;;11.10;99.90;;;;;;5121752;27;20461;-63
2024/02/09 11:44:10;;;;;;;6.30;4.33;;;11.10;99.90;;;;;;5141758;27;20484;-62
2024/02/09 11:46:40;;;;;;;6.13;4.30;;;11.10;99.90;;;;;;5142303;27;20450;-62
2024/02/09 11:49:08;;;;;;;8.37;4.70;;;11.10;99.90;;;;;;5141573;27;20454;-62
2024/02/09 11:51:35;;;;;;;5.60;4.50;;;11.20;99.90;;;;;;5141993;27;20497;-61
2024/02/09 11:54:08;;;;;;;8.10;4.50;;;11.10;99.90;;;;;;5141550;27;20460;-62
2024/02/09 11:56:36;;;;;;;9.30;4.50;;;11.00;99.90;;;;;;5141740;27;20462;-63
2024/02/09 11:59:04;;;;;;;8.00;4.60;;;11.10;99.90;;;;;;5141991;27;20463;-63
2024/02/09 12:01:32;;;;;;;7.60;4.50;;;11.10;99.90;;;;;;5142181;27;20457;-62
2024/02/09 12:04:02;;;;;;;13.20;8.90;;;11.20;99.90;;;;;;5141638;27;20515;-62
2024/02/09 12:06:30;;;;;;;21.00;10.70;;;11.20;99.90;;;;;;5141820;27;20562;-63
2024/02/09 12:08:58;;;;;;;11.50;6.23;;;11.30;99.90;;;;;;5141696;27;20771;-61
2024/02/09 12:11:25;;;;;;;8.73;6.17;;;11.50;99.90;;;;;;5141910;27;20766;-62
2024/02/09 12:13:53;;;;;;;11.27;8.40;;;11.60;99.90;;;;;;5141202;27;20469;-63
2024/02/09 12:16:21;;;;;;;15.43;9.50;;;11.70;99.90;;;;;;5141540;27;20755;-62
2024/02/09 12:18:54;;;;;;;9.03;6.63;;;11.80;99.90;;;;;;5141734;27;20484;-62
2024/02/09 12:21:28;;;;;;;11.70;5.27;;;12.00;99.90;;;;;;5141875;27;20486;-62
2024/02/09 12:23:56;;;;;;;11.80;5.80;;;12.00;99.90;;;;;;5141320;27;20455;-63
2024/02/09 12:26:24;;;;;;;10.00;5.80;;;11.90;99.90;;;;;;5141274;27;20483;-62
2024/02/09 12:28:52;;;;;;;10.90;5.00;;;11.80;99.90;;;;;;5124794;27;20827;-62
2024/02/09 12:31:20;;;;;;;10.53;4.63;;;11.80;99.90;;;;;;5120547;28;20870;-63
2024/02/09 12:33:52;;;;;;;6.07;3.83;;;11.70;99.90;;;;;;5119862;28;20451;-63
2024/02/09 12:36:21;;;;;;;9.10;6.40;;;11.60;99.90;;;;;;5120727;28;20462;-64
2024/02/09 12:38:56;;;;;;;6.80;5.03;;;11.60;99.90;;;;;;5119533;28;20937;-63
2024/02/09 12:41:24;;;;;;;5.50;4.30;;;11.60;99.90;;;;;;5119953;28;20447;-64
2024/02/09 12:44:01;;;;;;;5.87;3.63;;;11.50;99.90;;;;;;5120128;28;20461;-61
2024/02/09 12:46:29;;;;;;;7.13;4.60;;;11.50;99.90;;;;;;5119108;28;20504;-63
2024/02/09 12:48:56;;;;;;;8.30;3.70;;;11.60;99.90;;;;;;5119813;28;20777;-62
2024/02/09 12:51:24;;;;;;;4.77;4.00;;;11.60;99.90;;;;;;5119474;28;20536;-63
2024/02/09 12:53:53;;;;;;;5.70;3.60;;;11.60;99.90;;;;;;5117100;28;20447;-63
2024/02/09 12:56:21;;;;;;;6.27;4.60;;;11.50;99.90;;;;;;5118272;28;20455;-64
2024/02/09 12:58:49;;;;;;;4.80;3.47;;;11.50;99.90;;;;;;5116141;28;20462;-63
2024/02/09 13:01:18;;;;;;;4.27;3.30;;;11.40;99.90;;;;;;5117061;27;20896;-63
2024/02/09 13:03:46;;;;;;;5.53;3.93;;;11.40;99.90;;;;;;5117349;28;20467;-63
2024/02/09 13:06:16;;;;;;;5.03;3.60;;;11.30;99.90;;;;;;5117386;28;20551;-62
2024/02/09 13:08:44;;;;;;;7.33;4.30;;;11.30;99.90;;;;;;5118062;28;20460;-61
2024/02/09 13:11:13;;;;;;;7.00;4.60;;;11.30;99.90;;;;;;5118295;28;20946;-62
2024/02/09 13:13:42;;;;;;;5.07;3.70;;;11.20;99.90;;;;;;5119789;28;20515;-62
2024/02/09 13:16:10;;;;;;;5.70;3.43;;;11.20;99.90;;;;;;5119192;28;20459;-63
2024/02/09 13:18:38;;;;;;;8.20;3.57;;;11.20;99.90;;;;;;5119415;27;20803;-62
2024/02/09 13:21:06;;;;;;;7.70;4.20;;;11.20;99.90;;;;;;5119434;27;20484;-63
2024/02/09 13:23:35;;;;;;;5.87;4.20;;;11.20;99.90;;;;;;5119323;28;20462;-62
2024/02/09 13:26:11;;;;;;;10.00;4.50;;;11.20;99.90;;;;;;5118750;27;20517;-62
2024/02/09 13:28:40;;;;;;;5.53;4.53;;;11.20;99.90;;;;;;5117463;28;20467;-63
2024/02/09 13:31:10;;;;;;;6.77;4.23;;;11.20;99.90;;;;;;5117810;28;20504;-62
2024/02/09 13:33:38;;;;;;;7.27;4.43;;;11.20;99.90;;;;;;5119379;28;20466;-61
2024/02/09 13:36:08;;;;;;;7.37;4.00;;;11.20;99.90;;;;;;5118574;28;20463;-62
2024/02/09 13:38:36;;;;;;;6.83;4.20;;;11.20;99.90;;;;;;5118873;28;20463;-62
2024/02/09 13:41:04;;;;;;;5.83;4.03;;;11.30;99.90;;;;;;5118612;28;20502;-63
2024/02/09 13:43:32;;;;;;;7.10;4.60;;;11.30;99.90;;;;;;5119109;28;20853;-63
2024/02/09 13:46:01;;;;;;;6.23;4.77;;;11.30;99.90;;;;;;5118329;28;20554;-62
2024/02/09 13:48:30;;;;;;;9.57;5.60;;;11.30;99.90;;;;;;5118610;28;20467;-62
2024/02/09 13:51:07;;;;;;;5.77;4.77;;;11.30;99.90;;;;;;5118412;28;20459;-62
2024/02/09 13:53:34;;;;;;;7.97;5.00;;;11.30;99.90;;;;;;5118948;28;20720;-62
2024/02/09 13:56:06;;;;;;;6.00;4.53;;;11.30;99.90;;;;;;5117161;27;20550;-61
2024/02/09 13:58:35;;;;;;;10.57;5.43;;;11.30;99.90;;;;;;5118420;28;20459;-62
2024/02/09 14:01:04;;;;;;;10.03;5.33;;;11.30;99.90;;;;;;5118470;28;20550;-62
2024/02/09 14:03:31;;;;;;;7.40;4.83;;;11.30;99.90;;;;;;5118312;28;20542;-62
2024/02/09 14:06:01;;;;;;;7.23;4.10;;;11.30;99.90;;;;;;5116789;28;20524;-62
2024/02/09 14:08:29;;;;;;;7.00;5.03;;;11.30;99.90;;;;;;5118256;28;20882;-62
2024/02/09 14:10:57;;;;;;;6.17;4.80;;;11.30;99.90;;;;;;5118265;27;20984;-62
2024/02/09 14:13:25;;;;;;;7.60;4.57;;;11.20;99.90;;;;;;5118360;28;20515;-62
2024/02/09 14:15:52;;;;;;;5.40;4.17;;;11.20;99.90;;;;;;5116275;28;20466;-63
2024/02/09 14:18:24;;;;;;;6.43;4.50;;;11.20;99.90;;;;;;5116673;28;20548;-62
2024/02/09 14:20:51;;;;;;;8.10;5.27;;;11.20;99.90;;;;;;5118053;28;20487;-62
2024/02/09 14:23:19;;;;;;;8.57;5.83;;;11.20;99.90;;;;;;5118029;28;20888;-62
2024/02/09 14:25:48;;;;;;;10.17;5.33;;;11.20;99.90;;;;;;5117378;28;20579;-62
2024/02/09 14:28:16;;;;;;;9.87;4.70;;;11.30;99.90;;;;;;5117542;28;20477;-62
2024/02/09 14:30:44;;;;;;;7.57;5.37;;;11.30;99.90;;;;;;5117574;28;20465;-62
2024/02/09 14:33:13;;;;;;;6.63;4.87;;;11.30;99.90;;;;;;5117872;28;20589;-62
2024/02/09 14:35:44;;;;;;;6.53;4.40;;;11.30;99.90;;;;;;5118060;28;20491;-62
2024/02/09 14:38:11;;;;;;;6.00;4.67;;;11.30;99.90;;;;;;5117300;27;20467;-62
2024/02/09 14:40:39;;;;;;;4.50;3.73;;;11.30;99.90;;;;;;5117603;28;20459;-62
2024/02/09 14:43:07;;;;;;;5.77;4.47;;;11.20;99.90;;;;;;5117230;28;20550;-62
2024/02/09 14:45:34;;;;;;;6.13;5.00;;;11.30;99.90;;;;;;5117584;28;20521;-62
2024/02/09 14:48:02;;;;;;;12.70;6.30;;;11.30;99.90;;;;;;5117148;28;20908;-62